Pratt, Minnesota
Current Conditions -  °F | °C
As of 7:55 PM on Saturday 25 Oct 2014 (Local Time) from KOWA Reporting Station
Clear Clear  
Wind Chill: 43°   Ceiling: Unl
Heat Index: 43°   Visibility: 10mi
Dew Point: 30°   Wind: 3mph
Humidity: 61%   Direction: 260°W
Pressure: 30.06"   Gusts: NA
Location:  44.0575°N, 93.2082°W
Report Text: KOWA 260055Z AUTO 26003KT 10SM CLR 06/M01 A3006 RMK AO2
Loading
Personal Weather Stations






























Interactive Weather Map
Tropical Storm Tracking
New forecast layout! Learn more

10-Day Weather Forecast

Advertisements
Track Severe Weather on mobile